Kaisei Maru — JD3114 — position and weather

sailwx.info

Track history (hours):
 
Tides and Currents Weather Stations Pressure Air Temp Water Temp Dewpoint Dewpoint Depression Visibility Wind Speed Wind Dir Waves Ship Positions

Kaisei Maru

Last reported at 2015-Sep-01 10:29 UTC. Time now 2015-Sep-03 06:51 UTC.
Position N 34°10' E 134°56'.

Length 52 m; draft 4 m.

Type: Tanker. MMSI: 431001837.

Date/timePositionNaut miles runAvg speedWind from/ knotsBaromVisibWave heightAir tempDewpointWater temp
2015-Sep-01 10:29N 34°10' E 134°56'17 8.9
2015-Sep-01 08:33N 34°26' E 135°05'1010.4
2015-Sep-01 07:33N 34°33' E 135°15'10 9.7
2015-Sep-01 06:33N 34°39' E 135°24'3 2.6
2015-Sep-01 05:33N 34°40' E 135°27'0 0.0
2015-Sep-01 04:32N 34°40' E 135°27'1 1.4
2015-Sep-01 03:33N 34°39' E 135°25'10 9.7
2015-Sep-01 02:33N 34°30' E 135°19'5 4.5
2015-Sep-01 01:32N 34°26' E 135°19'0 0.0
2015-Sep-01 00:31N 34°26' E 135°19'0 0.0
2015-Aug-31 23:30N 34°26' E 135°19'1 0.6
2015-Aug-31 22:32N 34°26' E 135°19'0 0.0
2015-Aug-31 21:33N 34°26' E 135°19'0 0.0
2015-Aug-31 20:33N 34°26' E 135°19'0 0.0
2015-Aug-31 19:33N 34°26' E 135°19'0 0.0
2015-Aug-31 18:33N 34°26' E 135°19'0 0.0
2015-Aug-31 17:33N 34°26' E 135°19'0 0.0
2015-Aug-31 16:31N 34°26' E 135°19'0 0.0
2015-Aug-31 15:33N 34°26' E 135°19'0 0.0
2015-Aug-31 14:29N 34°26' E 135°19'0 0.0
2015-Aug-31 13:28N 34°26' E 135°19'0 0.0
2015-Aug-31 12:31N 34°26' E 135°19'0 0.0
2015-Aug-31 11:23N 34°26' E 135°19'0 0.0
2015-Aug-31 10:30N 34°26' E 135°19'9 9.2
2015-Aug-31 09:33N 34°32' E 135°11'1311.4
2015-Aug-31 08:24N 34°36' E 134°56'16 2.5
2015-Aug-31 02:07N 34°33' E 135°14'  
2015-Aug-26 23:17N 34°26' E 135°19'1 0.9
2015-Aug-26 22:16N 34°26' E 135°18'0 0.0
2015-Aug-26 21:12N 34°26' E 135°18'0 0.0
2015-Aug-26 20:31N 34°26' E 135°18'0 0.0
2015-Aug-26 19:21N 34°26' E 135°18'0 0.0
2015-Aug-26 18:33N 34°26' E 135°18'5 4.7
2015-Aug-26 17:33N 34°29' E 135°14'1212.1
2015-Aug-26 16:33N 34°36' E 135°02'  
Track history (hours):
 
Tides and Currents Weather Stations Pressure Air Temp Water Temp Dewpoint Dewpoint Depression Visibility Wind Speed Wind Dir Waves Ship Positions

Kaisei Maru

Last reported at 2015-Sep-01 10:29 UTC. Time now 2015-Sep-03 06:51 UTC.
Position N 34°10' E 134°56'.

Length 52 m; draft 4 m.

Type: Tanker. MMSI: 431001837.

Date/timePositionNaut miles runAvg speedWind from/ knotsBaromVisibWave heightAir tempDewpointWater temp
2015-Sep-01 10:29N 34°10' E 134°56'17 8.9
2015-Sep-01 08:33N 34°26' E 135°05'1010.4
2015-Sep-01 07:33N 34°33' E 135°15'10 9.7
2015-Sep-01 06:33N 34°39' E 135°24'3 2.6
2015-Sep-01 05:33N 34°40' E 135°27'0 0.0
2015-Sep-01 04:32N 34°40' E 135°27'1 1.4
2015-Sep-01 03:33N 34°39' E 135°25'10 9.7
2015-Sep-01 02:33N 34°30' E 135°19'5 4.5
2015-Sep-01 01:32N 34°26' E 135°19'0 0.0
2015-Sep-01 00:31N 34°26' E 135°19'0 0.0
2015-Aug-31 23:30N 34°26' E 135°19'1 0.6
2015-Aug-31 22:32N 34°26' E 135°19'0 0.0
2015-Aug-31 21:33N 34°26' E 135°19'0 0.0
2015-Aug-31 20:33N 34°26' E 135°19'0 0.0
2015-Aug-31 19:33N 34°26' E 135°19'0 0.0
2015-Aug-31 18:33N 34°26' E 135°19'0 0.0
2015-Aug-31 17:33N 34°26' E 135°19'0 0.0
2015-Aug-31 16:31N 34°26' E 135°19'0 0.0
2015-Aug-31 15:33N 34°26' E 135°19'0 0.0
2015-Aug-31 14:29N 34°26' E 135°19'0 0.0
2015-Aug-31 13:28N 34°26' E 135°19'0 0.0
2015-Aug-31 12:31N 34°26' E 135°19'0 0.0
2015-Aug-31 11:23N 34°26' E 135°19'0 0.0
2015-Aug-31 10:30N 34°26' E 135°19'9 9.2
2015-Aug-31 09:33N 34°32' E 135°11'1311.4
2015-Aug-31 08:24N 34°36' E 134°56'16 2.5
2015-Aug-31 02:07N 34°33' E 135°14'  
2015-Aug-26 23:17N 34°26' E 135°19'1 0.9
2015-Aug-26 22:16N 34°26' E 135°18'0 0.0
2015-Aug-26 21:12N 34°26' E 135°18'0 0.0
2015-Aug-26 20:31N 34°26' E 135°18'0 0.0
2015-Aug-26 19:21N 34°26' E 135°18'0 0.0
2015-Aug-26 18:33N 34°26' E 135°18'5 4.7
2015-Aug-26 17:33N 34°29' E 135°14'1212.1
2015-Aug-26 16:33N 34°36' E 135°02'  

Dump ship's entire track history